Time;durP1;ratioP1;P1;durP2;ratioP2;P2;SDS_P1;SDS_P2;PMS_P1;PMS_P2;Temp;Humidity;BMP_temperature;BMP_pressure;BME280_temperature;BME280_humidity;BME280_pressure;Samples;Min_cycle;Max_cycle;Signal;HPM_P1;HPM_P2
2021/06/08 00:01:26;;;;;;;9.18;5.10;;;;;;;13.76;100.00;99079.28;1672006;85;21126;-71
2021/06/08 00:03:53;;;;;;;8.55;4.83;;;;;;;13.77;100.00;99076.75;1672242;85;20898;-71
2021/06/08 00:06:19;;;;;;;15.03;5.12;;;;;;;13.78;100.00;99076.97;1664511;85;20924;-71
2021/06/08 00:08:45;;;;;;;4.97;4.40;;;;;;;13.77;100.00;99078.13;1665810;86;21018;-71
2021/06/08 00:11:12;;;;;;;7.72;4.97;;;;;;;13.77;100.00;99070.42;1666618;86;20907;-71
2021/06/08 00:13:38;;;;;;;8.13;4.92;;;;;;;13.72;100.00;99075.61;1662399;86;21106;-71
2021/06/08 00:16:05;;;;;;;6.90;4.83;;;;;;;13.70;100.00;99076.53;1655817;86;20943;-72
2021/06/08 00:18:31;;;;;;;6.85;4.95;;;;;;;13.68;100.00;99077.45;1655928;86;20979;-71
2021/06/08 00:20:57;;;;;;;10.70;5.45;;;;;;;13.66;100.00;99077.00;1656190;85;21531;-72
2021/06/08 00:23:24;;;;;;;7.67;4.83;;;;;;;13.64;100.00;99066.88;1655946;86;20967;-72
2021/06/08 00:25:50;;;;;;;10.80;5.08;;;;;;;13.63;100.00;99065.85;1656249;86;21751;-72
2021/06/08 00:28:17;;;;;;;6.75;4.53;;;;;;;13.61;100.00;99067.58;1655815;86;20931;-72
2021/06/08 00:30:43;;;;;;;9.63;4.90;;;;;;;13.60;100.00;99054.94;1656167;86;20864;-72
2021/06/08 00:33:09;;;;;;;9.20;4.65;;;;;;;13.58;100.00;99055.05;1655844;86;20919;-71
2021/06/08 00:35:35;;;;;;;9.35;4.92;;;;;;;13.55;100.00;99058.73;1656121;85;21071;-71
2021/06/08 00:38:02;;;;;;;7.42;4.95;;;;;;;13.54;100.00;99056.33;1655849;86;21125;-71
2021/06/08 00:40:28;;;;;;;7.90;4.70;;;;;;;13.52;100.00;99057.25;1679062;85;21438;-72
2021/06/08 00:42:55;;;;;;;9.75;4.67;;;;;;;13.50;100.00;99060.92;1683542;85;20991;-72
2021/06/08 00:45:22;;;;;;;11.88;5.12;;;;;;;13.46;100.00;99058.63;1683769;85;21502;-72
2021/06/08 00:47:49;;;;;;;7.25;4.92;;;;;;;13.43;100.00;99057.38;1683514;85;20919;-72
2021/06/08 00:50:15;;;;;;;8.13;5.22;;;;;;;13.43;100.00;99057.38;1683716;85;21799;-72
2021/06/08 00:52:42;;;;;;;12.68;5.33;;;;;;;13.42;100.00;99055.77;1683370;85;20931;-72
2021/06/08 00:55:10;;;;;;;7.37;5.08;;;;;;;13.42;100.00;99055.77;1683706;85;20934;-72
2021/06/08 00:57:40;;;;;;;13.62;5.83;;;;;;;13.43;100.00;99056.56;1683456;85;21541;-72
2021/06/08 01:00:07;;;;;;;14.73;5.85;;;;;;;13.41;100.00;99052.78;1683833;85;20994;-72
2021/06/08 01:02:34;;;;;;;5.85;4.60;;;;;;;13.40;100.00;99051.75;1683477;85;21857;-71
2021/06/08 01:05:07;;;;;;;9.60;5.70;;;;;;;13.39;100.00;99057.03;1683630;85;20931;-72
2021/06/08 01:07:35;;;;;;;6.20;5.10;;;;;;;13.37;100.00;99057.95;1683537;85;21026;-71
2021/06/08 01:10:03;;;;;;;13.75;4.95;;;;;;;13.38;100.00;99062.31;1674024;83;21505;-71
2021/06/08 01:12:30;;;;;;;10.20;5.40;;;;;;;13.37;100.00;99055.19;1658195;85;20931;-71
2021/06/08 01:14:56;;;;;;;12.05;5.80;;;;;;;13.35;100.00;99058.88;1639599;87;21497;-71
2021/06/08 01:17:22;;;;;;;6.53;4.80;;;;;;;13.35;100.00;99061.63;1639038;87;20900;-72
2021/06/08 01:19:49;;;;;;;8.90;5.03;;;;;;;13.32;100.00;99058.19;1650964;87;20964;-71
2021/06/08 01:22:15;;;;;;;9.45;5.22;;;;;;;13.31;100.00;99056.58;1650791;86;20952;-73
2021/06/08 01:24:44;;;;;;;8.68;5.22;;;;;;;13.30;100.00;99060.48;1639557;87;20885;-72
2021/06/08 01:27:11;;;;;;;11.75;5.12;;;;;;;13.28;100.00;99055.92;1686373;85;21143;-72
2021/06/08 01:29:38;;;;;;;8.70;5.45;;;;;;;13.28;100.00;99057.30;1686634;85;20947;-73
2021/06/08 01:32:04;;;;;;;7.97;5.75;;;;;;;13.26;100.00;99058.22;1686465;85;21019;-72
2021/06/08 01:34:32;;;;;;;10.15;5.47;;;;;;;13.24;100.00;99057.76;1685914;85;20916;-74
2021/06/08 01:36:58;;;;;;;6.87;5.25;;;;;;;13.21;100.00;99057.30;1664561;85;20996;-72
2021/06/08 01:39:25;;;;;;;10.88;5.83;;;;;;;13.18;100.00;99063.50;1670889;83;21096;-73
2021/06/08 01:41:51;;;;;;;9.13;5.28;;;;;;;13.13;100.00;99060.14;1639363;86;20895;-73
2021/06/08 01:44:18;;;;;;;7.15;5.00;;;;;;;13.11;100.00;99062.43;1639550;87;21545;-73
2021/06/08 01:46:44;;;;;;;9.43;5.92;;;;;;;13.10;100.00;99068.52;1640581;86;20931;-73
2021/06/08 01:49:10;;;;;;;10.68;5.53;;;;;;;13.09;100.00;99064.72;1669187;85;21499;-73
2021/06/08 01:51:58;;;;;;;7.20;5.80;;;;;;;13.08;100.00;99066.67;1639377;87;21067;-73
2021/06/08 01:54:32;;;;;;;9.90;5.10;;;;;;;13.09;100.00;99070.23;1600721;87;21039;-73
2021/06/08 01:57:07;;;;;;;6.90;5.40;;;;;;;13.08;100.00;99072.77;1651157;87;21460;-72
2021/06/08 02:00:01;;;;;;;6.37;4.78;;;;;;;13.08;100.00;99073.56;1639404;87;21039;-73
2021/06/08 02:02:33;;;;;;;11.95;5.60;;;;;;;13.09;100.00;99068.86;1651226;87;20988;-73
2021/06/08 02:05:30;;;;;;;7.78;5.80;;;;;;;13.08;100.00;99062.55;1650883;87;21155;-73
2021/06/08 02:08:12;;;;;;;6.55;5.05;;;;;;;13.10;100.00;99069.89;1639099;87;20968;-70
2021/06/08 02:10:53;;;;;;;10.68;5.53;;;;;;;13.10;100.00;99060.25;1638824;87;20923;-71
2021/06/08 02:13:48;;;;;;;10.38;5.80;;;;;;;13.09;100.00;99058.64;1651201;86;20880;-71
2021/06/08 02:16:52;;;;;;;10.25;6.15;;;;;;;13.10;100.00;99060.82;1639558;87;20987;-71
2021/06/08 02:19:23;;;;;;;9.78;5.67;;;;;;;13.09;100.00;99066.91;1657229;86;21152;-70
2021/06/08 02:21:56;;;;;;;13.28;6.15;;;;;;;13.09;100.00;99066.91;1620497;87;20908;-70
2021/06/08 02:24:25;;;;;;;7.72;5.70;;;;;;;13.11;100.00;99067.94;1658203;86;20955;-71
2021/06/08 02:26:56;;;;;;;7.35;5.70;;;;;;;13.11;100.00;99072.88;1646255;87;21471;-71
2021/06/08 02:29:23;;;;;;;10.63;6.47;;;;;;;13.11;100.00;99072.08;1658564;86;21438;-69
2021/06/08 02:31:49;;;;;;;10.10;5.80;;;;;;;13.10;100.00;99069.89;1646130;87;21138;-71
2021/06/08 02:34:15;;;;;;;10.53;5.20;;;;;;;13.11;100.00;99068.75;1658298;86;20941;-74
2021/06/08 02:36:43;;;;;;;9.35;5.90;;;;;;;13.13;100.00;99071.16;1658075;86;21011;-70
2021/06/08 02:39:09;;;;;;;7.87;5.40;;;;;;;13.15;100.00;99072.42;1646429;87;20892;-71
2021/06/08 02:41:35;;;;;;;9.08;5.70;;;;;;;13.18;100.00;99078.66;1658173;86;21509;-72
2021/06/08 02:44:02;;;;;;;8.43;5.55;;;;;;;13.20;100.00;99082.45;1646536;87;21076;-73
2021/06/08 02:46:29;;;;;;;9.50;5.42;;;;;;;13.24;100.00;99085.32;1658027;86;21008;-72
2021/06/08 02:48:56;;;;;;;6.03;5.33;;;;;;;13.26;100.00;99085.78;1658274;86;20951;-73
2021/06/08 02:51:23;;;;;;;9.75;5.50;;;;;;;13.30;100.00;99092.19;1646296;87;20990;-74
2021/06/08 02:53:50;;;;;;;9.88;5.30;;;;;;;13.33;100.00;99092.88;1658395;86;20912;-72
2021/06/08 02:56:17;;;;;;;5.50;4.80;;;;;;;13.36;100.00;99094.94;1645252;87;21116;-73
2021/06/08 02:58:44;;;;;;;14.80;6.40;;;;;;;13.38;100.00;99090.69;1657837;86;21492;-74
2021/06/08 03:01:15;;;;;;;9.48;5.67;;;;;;;13.41;100.00;99097.47;1633159;87;20977;-75
2021/06/08 03:03:42;;;;;;;7.73;5.87;;;;;;;13.42;100.00;99096.31;1633634;87;21456;-74
2021/06/08 03:06:16;;;;;;;9.90;6.28;;;;;;;13.44;100.00;99104.47;1618592;87;20918;-73
2021/06/08 03:09:00;;;;;;;8.38;5.58;;;;;;;13.48;100.00;99094.36;1617751;87;21531;-73
2021/06/08 03:11:40;;;;;;;10.55;6.05;;;;;;;13.53;100.00;99095.51;1633311;86;20924;-73
2021/06/08 03:14:09;;;;;;;9.50;6.47;;;;;;;13.59;100.00;99098.03;1618697;87;21011;-73
2021/06/08 03:16:43;;;;;;;10.30;6.65;;;;;;;13.63;100.00;99094.81;1633834;86;21044;-74
2021/06/08 03:19:10;;;;;;;14.38;6.30;;;;;;;13.67;100.00;99104.00;1659994;86;21412;-73
2021/06/08 03:21:42;;;;;;;9.70;6.08;;;;;;;13.71;100.00;99104.91;1632518;85;21164;-74
2021/06/08 03:24:11;;;;;;;;;;;;;;;13.74;100.00;99102.27;1638996;87;20976;-73
2021/06/08 03:26:38;;;;;;;11.33;5.62;;;;;;;13.79;100.00;99097.89;1659842;86;20093;-72
2021/06/08 03:29:08;;;;;;;8.55;6.10;;;;;;;13.84;100.00;99099.61;1665275;86;21074;-75
2021/06/08 03:31:36;;;;;;;12.80;5.70;;;;;;;13.87;100.00;99105.20;1667841;85;21059;-71
2021/06/08 03:34:03;;;;;;;7.42;6.50;;;;;;;13.93;100.00;99101.63;1661540;85;21127;-73
2021/06/08 03:36:29;;;;;;;9.85;5.95;;;;;;;13.99;100.00;99103.57;1659587;85;20971;-74
2021/06/08 03:38:55;;;;;;;11.95;6.15;;;;;;;14.05;100.00;99106.31;1633566;86;20948;-74
2021/06/08 03:41:22;;;;;;;7.28;5.55;;;;;;;14.09;100.00;99108.03;1649284;85;20962;-71
2021/06/08 03:43:48;;;;;;;12.20;6.22;;;;;;;14.16;100.00;99108.23;1683820;85;21510;-74
2021/06/08 03:46:16;;;;;;;10.03;6.40;;;;;;;14.23;100.00;99106.84;1683754;85;21098;-73
2021/06/08 03:48:43;;;;;;;12.33;6.67;;;;;;;14.27;100.00;99107.75;1683372;85;20915;-72
2021/06/08 03:51:10;;;;;;;11.08;6.50;;;;;;;14.31;100.00;99103.94;1683770;84;20871;-73
2021/06/08 03:53:40;;;;;;;9.13;6.67;;;;;;;14.37;100.00;99108.05;1683481;85;21002;-73
2021/06/08 03:56:10;;;;;;;15.10;7.50;;;;;;;14.43;100.00;99101.73;1683780;85;20943;-72
2021/06/08 03:58:37;;;;;;;9.13;6.33;;;;;;;14.49;100.00;99113.53;1679707;85;21185;-73
2021/06/08 04:01:04;;;;;;;10.45;6.65;;;;;;;14.55;100.00;99109.94;1609937;87;20911;-73
2021/06/08 04:03:30;;;;;;;9.75;6.30;;;;;;;14.60;100.00;99118.55;1642172;87;20884;-73
2021/06/08 04:05:57;;;;;;;11.25;6.70;;;;;;;14.65;100.00;99123.82;1615984;87;21051;-73
2021/06/08 04:08:28;;;;;;;12.00;7.08;;;;;;;14.71;100.00;99122.41;1642196;87;20983;-74
2021/06/08 04:10:56;;;;;;;9.07;7.27;;;;;;;14.76;100.00;99125.72;1642640;87;21129;-72
2021/06/08 04:13:22;;;;;;;11.18;6.42;;;;;;;14.84;100.00;99123.95;1655821;86;21975;-73
2021/06/08 04:15:49;;;;;;;9.08;6.00;;;;;;;14.94;100.00;99124.81;1656140;86;20956;-72
2021/06/08 04:18:16;;;;;;;15.45;7.67;;;;;;;15.02;100.00;99132.11;1655734;86;20948;-72
2021/06/08 04:20:43;;;;;;;7.15;6.17;;;;;;;15.09;100.00;99130.11;1655846;86;20925;-72
2021/06/08 04:23:09;;;;;;;10.45;7.20;;;;;;;15.20;100.00;99131.19;1655944;86;21115;-72
2021/06/08 04:25:35;;;;;;;7.35;6.50;;;;;;;15.29;100.00;99128.25;1655808;86;20928;-73
2021/06/08 04:28:02;;;;;;;11.75;6.30;;;;;;;15.35;99.48;99122.67;1655881;86;21436;-73
2021/06/08 04:30:28;;;;;;;13.20;6.75;;;;;;;15.38;98.84;99121.95;1655897;86;20985;-73
2021/06/08 04:32:55;;;;;;;11.60;6.95;;;;;;;15.38;98.10;99117.80;1659615;83;20991;-74
2021/06/08 04:35:21;;;;;;;13.68;7.15;;;;;;;15.35;97.71;99120.70;1662700;85;21122;-72
2021/06/08 04:37:48;;;;;;;12.20;6.87;;;;;;;15.35;97.67;99119.91;1683483;85;21026;-72
2021/06/08 04:40:15;;;;;;;9.58;6.90;;;;;;;15.36;97.82;99118.74;1683795;85;20946;-73
2021/06/08 04:42:47;;;;;;;8.15;6.45;;;;;;;15.38;97.85;99121.95;1683495;85;20946;-71
2021/06/08 04:45:15;;;;;;;11.10;6.10;;;;;;;15.38;97.70;99117.23;1683908;84;20967;-72
2021/06/08 04:47:42;;;;;;;10.00;7.20;;;;;;;15.43;98.19;99117.53;1683423;85;21130;-71
2021/06/08 04:50:11;;;;;;;15.03;7.17;;;;;;;15.49;98.58;99115.52;1683442;85;20907;-73
2021/06/08 04:52:38;;;;;;;10.13;6.85;;;;;;;15.58;98.40;99112.59;1683706;85;20939;-72
2021/06/08 04:55:07;;;;;;;8.28;6.62;;;;;;;15.63;97.94;99115.06;1683676;85;20958;-71
2021/06/08 04:57:34;;;;;;;16.07;7.37;;;;;;;15.68;97.78;99117.55;1683427;85;20977;-71
2021/06/08 05:00:13;;;;;;;14.03;6.47;;;;;;;15.70;97.44;99116.61;1683453;85;21170;-72
2021/06/08 05:02:47;;;;;;;9.70;6.28;;;;;;;15.71;97.00;99124.33;1683691;84;21012;-72
2021/06/08 05:05:20;;;;;;;11.85;6.83;;;;;;;15.70;96.44;99121.34;1683518;85;20872;-71
2021/06/08 05:07:58;;;;;;;9.03;6.60;;;;;;;15.71;96.60;99122.37;1673874;83;20979;-72
2021/06/08 05:10:25;;;;;;;14.13;6.75;;;;;;;15.74;96.18;99118.88;1652088;85;21027;-73
2021/06/08 05:12:51;;;;;;;10.75;5.95;;;;;;;15.83;97.16;99116.72;1650787;87;22162;-73
2021/06/08 05:15:18;;;;;;;14.00;7.22;;;;;;;15.97;96.32;99118.20;1639013;87;20983;-72
2021/06/08 05:17:44;;;;;;;7.12;6.17;;;;;;;16.04;95.64;99121.12;1651028;86;21522;-72
2021/06/08 05:20:11;;;;;;;11.35;7.20;;;;;;;16.10;95.21;99116.91;1688129;85;21030;-76
2021/06/08 05:22:37;;;;;;;11.88;7.65;;;;;;;16.10;93.50;99113.56;1664790;85;21006;-81
2021/06/08 05:25:04;;;;;;;10.25;6.87;;;;;;;16.12;93.79;99113.20;1687480;84;21770;-79
2021/06/08 05:27:31;;;;;;;10.63;6.92;;;;;;;16.17;93.96;99121.22;1678454;84;21574;-78
2021/06/08 05:29:58;;;;;;;14.87;7.10;;;;;;;16.28;94.96;99120.84;1688822;84;20959;-74
2021/06/08 05:32:25;;;;;;;8.95;6.70;;;;;;;16.45;94.86;99129.30;1688859;85;21604;-73
2021/06/08 05:34:52;;;;;;;10.43;6.67;;;;;;;16.65;96.15;99123.20;1688235;84;20962;-76
2021/06/08 05:37:19;;;;;;;14.85;6.45;;;;;;;16.87;95.38;99130.73;1679921;85;21137;-76
2021/06/08 05:39:45;;;;;;;11.85;6.37;;;;;;;17.03;93.87;99118.95;1689615;85;21501;-75
2021/06/08 05:42:18;;;;;;;8.30;6.80;;;;;;;17.18;92.56;99121.97;1689436;85;20920;-70
2021/06/08 05:44:43;;;;;;;7.37;5.75;;;;;;;17.30;91.40;99115.66;1689983;85;20884;-70
2021/06/08 05:47:10;;;;;;;13.90;6.33;;;;;;;17.44;90.52;99123.38;1689714;84;20900;-70
2021/06/08 05:49:38;;;;;;;5.62;4.97;;;;;;;17.54;88.89;99121.95;1689887;84;21756;-71
2021/06/08 05:52:07;;;;;;;8.70;5.40;;;;;;;17.65;89.30;99116.82;1689498;84;20959;-71
2021/06/08 05:54:33;;;;;;;10.70;5.12;;;;;;;17.76;87.96;99119.17;1689776;85;20860;-71
2021/06/08 05:57:00;;;;;;;9.30;6.10;;;;;;;17.86;88.01;99112.77;1689549;84;20876;-71
2021/06/08 05:59:26;;;;;;;10.43;5.30;;;;;;;17.96;87.14;99119.03;1689908;85;20943;-80
2021/06/08 06:01:53;;;;;;;9.43;5.42;;;;;;;18.10;87.28;99120.62;1688850;85;21147;-70
2021/06/08 06:04:20;;;;;;;7.65;5.47;;;;;;;18.25;85.46;99114.67;1689696;85;20928;-73
2021/06/08 06:06:47;;;;;;;9.23;5.05;;;;;;;18.38;84.82;99115.44;1689479;85;20999;-69
2021/06/08 06:09:15;;;;;;;7.22;4.80;;;;;;;18.53;84.32;99111.41;1689845;85;20947;-72
2021/06/08 06:11:41;;;;;;;6.28;4.75;;;;;;;18.63;82.89;99106.02;1689505;85;20911;-72
2021/06/08 06:14:08;;;;;;;14.10;4.95;;;;;;;18.69;82.20;99108.66;1664805;85;22205;-70
2021/06/08 06:16:41;;;;;;;10.43;5.15;;;;;;;18.74;82.07;99107.52;1689353;85;21025;-68
2021/06/08 06:19:07;;;;;;;11.22;4.85;;;;;;;18.79;81.71;99110.77;1659490;85;21067;-83
2021/06/08 06:21:34;;;;;;;5.37;4.20;;;;;;;18.87;81.33;99106.66;1601532;87;20976;-79
2021/06/08 06:24:01;;;;;;;6.62;4.35;;;;;;;18.97;81.02;99114.32;1669371;86;20915;-80
2021/06/08 06:26:27;;;;;;;7.15;4.20;;;;;;;19.16;81.75;99107.13;1669348;86;21901;-78
2021/06/08 06:28:54;;;;;;;8.20;4.72;;;;;;;19.39;79.61;99097.98;1669260;86;21417;-85
2021/06/08 06:31:21;;;;;;;5.70;4.20;;;;;;;19.64;78.85;99098.81;1669381;86;20964;-82
2021/06/08 06:33:52;;;;;;;6.17;4.17;;;;;;;19.85;78.18;99101.70;1669386;86;21006;-77
2021/06/08 06:36:17;;;;;;;7.22;4.70;;;;;;;20.07;77.15;99099.25;1668913;86;20967;-69
2021/06/08 06:38:49;;;;;;;8.98;4.90;;;;;;;20.26;74.28;99102.30;1669056;86;21128;-67
2021/06/08 06:41:19;;;;;;;12.53;5.20;;;;;;;20.42;72.89;99097.83;1669445;86;20971;-70
2021/06/08 06:43:54;;;;;;;30.68;8.80;;;;;;;20.55;73.68;99101.86;1669708;86;21610;-69
2021/06/08 06:46:21;;;;;;;19.23;7.20;;;;;;;20.71;72.58;99096.73;1669365;86;20923;-70
2021/06/08 06:48:53;;;;;;;11.30;5.25;;;;;;;20.94;72.92;99092.78;1669623;86;21003;-71
2021/06/08 06:51:19;;;;;;;6.47;4.07;;;;;;;21.21;71.82;99097.40;1669707;86;21135;-70
2021/06/08 06:53:48;;;;;;;11.75;4.55;;;;;;;21.45;69.19;99092.42;1669245;86;21014;-69
2021/06/08 06:56:14;;;;;;;6.92;4.20;;;;;;;21.58;68.67;99100.59;1669686;86;21339;-70
2021/06/08 06:58:42;;;;;;;4.85;4.05;;;;;;;21.70;69.02;99100.19;1669318;86;20992;-72
2021/06/08 07:01:09;;;;;;;6.28;4.00;;;;;;;21.78;67.65;99101.58;1669379;86;21486;-71
2021/06/08 07:03:35;;;;;;;5.37;3.80;;;;;;;21.84;66.77;99101.37;1669692;86;21102;-70
2021/06/08 07:06:02;;;;;;;5.58;3.12;;;;;;;21.89;67.52;99107.95;1642483;86;20956;-71
2021/06/08 07:08:29;;;;;;;4.40;3.33;;;;;;;21.93;64.98;99108.73;1669430;86;21058;-70
2021/06/08 07:10:56;;;;;;;7.15;3.00;;;;;;;21.91;64.97;99105.55;1669579;86;21019;-71
2021/06/08 07:13:22;;;;;;;6.72;3.90;;;;;;;21.85;64.71;99109.34;1642536;86;20888;-70
2021/06/08 07:15:51;;;;;;;4.78;3.72;;;;;;;21.86;65.87;99110.15;1669326;86;21565;-70
2021/06/08 07:18:17;;;;;;;5.47;3.50;;;;;;;21.96;66.74;99107.30;1670062;85;21031;-70
2021/06/08 07:20:44;;;;;;;3.62;3.22;;;;;;;22.06;65.26;99108.52;1672988;85;21466;-71
2021/06/08 07:23:14;;;;;;;8.98;3.50;;;;;;;22.14;64.36;99110.09;1663527;85;20944;-71
2021/06/08 07:25:38;;;;;;;5.72;3.85;;;;;;;22.21;64.95;99102.28;1687063;85;20983;-71
2021/06/08 07:28:09;;;;;;;6.97;3.70;;;;;;;22.25;63.69;99105.27;1687447;85;21750;-70
2021/06/08 07:30:36;;;;;;;4.40;3.20;;;;;;;22.22;63.40;99100.48;1687204;85;20904;-72
2021/06/08 07:33:44;;;;;;;7.47;4.33;;;;;;;22.14;61.72;99109.29;1687555;85;20863;-71
2021/06/08 07:36:27;;;;;;;4.90;3.40;;;;;;;22.08;64.38;99105.51;1687346;85;20935;-71
2021/06/08 07:39:13;;;;;;;4.42;3.55;;;;;;;22.16;63.38;99099.90;1687342;85;20923;-69
2021/06/08 07:41:44;;;;;;;5.85;3.98;;;;;;;22.19;64.00;99103.28;1686836;85;22240;-69
2021/06/08 07:44:29;;;;;;;8.33;3.67;;;;;;;22.24;63.79;99101.47;1687443;85;20926;-71
2021/06/08 07:46:58;;;;;;;7.25;3.27;;;;;;;22.19;64.30;99102.69;1683631;85;20974;-70
2021/06/08 07:49:24;;;;;;;3.27;2.52;;;;;;;22.11;63.09;99101.71;1680848;84;20920;-70
2021/06/08 07:51:51;;;;;;;5.78;2.50;;;;;;;22.11;62.88;99109.50;1687380;85;20904;-71
2021/06/08 07:54:17;;;;;;;3.20;2.90;;;;;;;22.21;62.18;99105.08;1635382;85;21788;-70
2021/06/08 07:56:44;;;;;;;5.83;3.40;;;;;;;22.42;63.19;99105.61;1658356;86;20941;-70
2021/06/08 07:59:10;;;;;;;5.08;3.47;;;;;;;22.63;62.71;99109.67;1689825;84;21469;-70
2021/06/08 08:01:39;;;;;;;4.80;3.55;;;;;;;22.79;62.57;99114.83;1703131;84;21042;-69
2021/06/08 08:04:09;;;;;;;5.87;4.17;;;;;;;22.98;63.75;99113.72;1674755;85;20998;-70
2021/06/08 08:06:35;;;;;;;5.08;3.30;;;;;;;23.15;61.20;99108.38;1632903;86;21811;-69
2021/06/08 08:09:03;;;;;;;9.88;3.92;;;;;;;23.22;61.14;99113.93;1656945;85;20880;-69
2021/06/08 08:11:31;;;;;;;5.10;3.45;;;;;;;23.31;60.09;99112.86;1687192;85;21042;-70
2021/06/08 08:13:58;;;;;;;9.13;3.60;;;;;;;23.46;61.41;99113.55;1683504;85;21077;-71
2021/06/08 08:16:25;;;;;;;11.10;3.50;;;;;;;23.69;60.70;99112.35;1675760;85;21064;-71
2021/06/08 08:18:52;;;;;;;6.40;3.50;;;;;;;23.99;58.99;99111.66;1670557;85;21134;-71
2021/06/08 08:21:19;;;;;;;7.67;3.40;;;;;;;24.19;56.41;99111.25;1614717;86;20990;-71
2021/06/08 08:23:46;;;;;;;8.25;3.33;;;;;;;24.34;55.42;99109.87;1660867;86;20999;-71
2021/06/08 08:26:12;;;;;;;9.25;4.05;;;;;;;24.55;54.58;99113.03;1660955;86;21040;-70
2021/06/08 08:28:41;;;;;;;5.87;3.47;;;;;;;24.73;56.29;99104.98;1668099;85;20995;-71
2021/06/08 08:31:11;;;;;;;4.42;3.50;;;;;;;24.82;55.16;99113.08;1671829;85;21154;-71
2021/06/08 08:33:38;;;;;;;8.65;3.50;;;;;;;24.80;54.07;99104.28;1671909;85;21509;-71
2021/06/08 08:36:05;;;;;;;6.05;3.22;;;;;;;24.81;55.18;99108.68;1671684;85;21039;-70
2021/06/08 08:38:32;;;;;;;5.70;3.45;;;;;;;24.83;53.14;99110.45;1671737;85;20942;-70
2021/06/08 08:41:16;;;;;;;5.97;3.12;;;;;;;24.86;54.35;99112.39;1671795;85;21015;-70
2021/06/08 08:43:45;;;;;;;7.80;3.33;;;;;;;25.11;54.44;99112.06;1671728;85;22136;-71
2021/06/08 08:46:12;;;;;;;4.42;2.80;;;;;;;25.59;51.56;99112.28;1671712;85;20904;-70
2021/06/08 08:48:40;;;;;;;4.12;3.10;;;;;;;26.00;51.17;99111.34;1648929;85;21032;-70
2021/06/08 08:51:08;;;;;;;8.35;2.70;;;;;;;26.36;52.28;99107.09;1644684;87;21030;-70
2021/06/08 08:53:36;;;;;;;8.03;2.87;;;;;;;26.48;49.66;99104.42;1644467;87;21046;-71
2021/06/08 08:56:03;;;;;;;7.55;3.10;;;;;;;26.63;50.73;99109.11;1618571;87;21243;-70
2021/06/08 08:58:30;;;;;;;8.18;3.30;;;;;;;26.83;50.27;99097.82;1644407;87;20923;-70
2021/06/08 09:00:57;;;;;;;6.03;2.95;;;;;;;27.08;48.78;99112.17;1644864;87;20957;-71
2021/06/08 09:03:24;;;;;;;8.43;3.25;;;;;;;27.37;47.66;99103.02;1644532;87;20919;-70
2021/06/08 09:05:55;;;;;;;10.35;3.05;;;;;;;27.64;47.18;99107.01;1619216;85;21040;-71
2021/06/08 09:08:20;;;;;;;5.95;3.02;;;;;;;27.57;45.67;99107.95;1644217;87;21146;-70
2021/06/08 09:10:47;;;;;;;5.62;2.62;;;;;;;27.22;44.26;99107.58;1669764;85;21005;-72
2021/06/08 09:13:14;;;;;;;6.08;2.50;;;;;;;26.90;44.64;99100.48;1671854;85;21013;-70
2021/06/08 09:15:40;;;;;;;7.00;2.35;;;;;;;26.88;45.67;99091.06;1671946;85;20921;-71
2021/06/08 09:18:06;;;;;;;6.17;2.83;;;;;;;27.11;45.94;99096.41;1671767;85;20952;-69
2021/06/08 09:20:33;;;;;;;6.17;2.85;;;;;;;27.39;45.47;99094.91;1673902;85;21512;-70
2021/06/08 09:23:08;;;;;;;6.10;2.83;;;;;;;27.36;45.95;99093.77;1686807;85;21081;-70
2021/06/08 09:25:42;;;;;;;5.78;2.77;;;;;;;27.23;45.92;99086.63;1686976;85;20900;-71
2021/06/08 09:28:29;;;;;;;4.97;2.95;;;;;;;27.22;46.29;99087.06;1659037;86;20974;-69
2021/06/08 09:31:21;;;;;;;4.80;3.27;;;;;;;27.07;46.18;99091.48;1659215;86;21041;-69
2021/06/08 09:33:52;;;;;;;;;;;;;;;27.00;45.76;99080.38;1660327;86;21155;-69
2021/06/08 09:36:27;;;;;;;6.80;3.52;;;;;;;27.19;47.46;99083.09;1664265;85;20089;-70
2021/06/08 09:39:00;;;;;;;8.33;3.42;;;;;;;27.42;47.92;99081.34;1662561;85;22185;-72
2021/06/08 09:41:41;;;;;;;6.85;2.92;;;;;;;27.69;45.33;99082.51;1673719;85;20994;-71
2021/06/08 09:44:16;;;;;;;5.03;3.27;;;;;;;27.76;42.78;99068.98;1671884;85;21045;-71
2021/06/08 09:46:56;;;;;;;9.68;3.60;;;;;;;27.76;43.60;99063.34;1673917;85;21147;-70
2021/06/08 09:49:35;;;;;;;4.53;3.47;;;;;;;27.61;43.50;99063.57;1671026;85;20931;-69
2021/06/08 09:52:08;;;;;;;7.03;3.55;;;;;;;27.17;44.19;99070.69;1644367;87;21514;-69
2021/06/08 09:54:40;;;;;;;5.40;3.52;;;;;;;26.88;45.11;99066.33;1672101;85;20995;-70
2021/06/08 09:57:17;;;;;;;4.40;3.33;;;;;;;26.81;48.32;99063.06;1644448;86;21478;-69
2021/06/08 09:59:58;;;;;;;5.87;3.67;;;;;;;27.00;43.70;99053.62;1672136;85;21838;-72
2021/06/08 10:02:38;;;;;;;7.35;3.80;;;;;;;27.16;45.79;99057.83;1643808;86;21447;-72
2021/06/08 10:05:31;;;;;;;4.92;3.50;;;;;;;27.03;43.68;99050.72;1672088;85;21613;-70
2021/06/08 10:08:03;;;;;;;6.17;3.25;;;;;;;26.86;44.41;99051.27;1644622;86;21131;-70
2021/06/08 10:10:45;;;;;;;4.67;3.40;;;;;;;26.89;46.44;99038.34;1672433;85;20908;-72
2021/06/08 10:13:18;;;;;;;6.20;3.10;;;;;;;27.11;43.94;99031.00;1644448;87;21186;-70
2021/06/08 10:16:01;;;;;;;7.28;2.92;;;;;;;27.27;43.57;99030.18;1657198;85;20935;-71
2021/06/08 10:18:46;;;;;;;6.40;3.15;;;;;;;27.33;45.04;99028.42;1644744;86;21537;-71
2021/06/08 10:21:13;;;;;;;6.28;3.50;;;;;;;27.45;45.48;99026.91;1655944;85;20964;-71
2021/06/08 10:23:39;;;;;;;5.95;3.45;;;;;;;27.52;43.67;99021.09;1628479;86;20960;-72
2021/06/08 10:26:12;;;;;;;6.97;3.12;;;;;;;27.72;44.68;99021.00;1654729;86;21115;-70
2021/06/08 10:28:38;;;;;;;6.42;3.27;;;;;;;27.99;44.28;99020.01;1627973;87;21067;-72
2021/06/08 10:31:05;;;;;;;8.10;3.62;;;;;;;28.26;41.44;99019.67;1655261;86;20968;-71
2021/06/08 10:33:31;;;;;;;3.45;2.80;;;;;;;28.41;42.03;99017.98;1628045;86;21064;-71
2021/06/08 10:35:58;;;;;;;6.47;3.50;;;;;;;28.54;39.61;99006.09;1655081;86;21019;-71
2021/06/08 10:38:24;;;;;;;6.70;3.70;;;;;;;28.60;39.49;99002.08;1630432;86;21991;-71
2021/06/08 10:40:54;;;;;;;5.67;3.33;;;;;;;28.65;38.50;99011.41;1647179;86;21035;-70
2021/06/08 10:43:29;;;;;;;6.95;3.37;;;;;;;28.67;39.79;99003.89;1683278;85;20875;-70
2021/06/08 10:45:56;;;;;;;3.92;3.10;;;;;;;28.79;40.92;99001.70;1683372;85;20934;-72
2021/06/08 10:48:29;;;;;;;5.17;2.95;;;;;;;28.97;38.70;99001.91;1706490;83;21097;-71
2021/06/08 10:51:18;;;;;;;7.25;3.45;;;;;;;29.00;37.56;99000.22;1715130;83;21101;-71
2021/06/08 10:53:54;;;;;;;4.05;2.85;;;;;;;28.99;38.88;99010.73;1714726;83;20986;-71
2021/06/08 10:56:32;;;;;;;3.75;2.95;;;;;;;29.09;37.52;99006.77;1715230;83;21452;-72
2021/06/08 10:59:04;;;;;;;6.92;3.45;;;;;;;28.85;37.83;99012.01;1715029;83;21456;-72
2021/06/08 11:01:42;;;;;;;6.80;3.83;;;;;;;28.44;40.33;99015.67;1715235;83;20904;-71
2021/06/08 11:04:15;;;;;;;7.65;3.90;;;;;;;28.25;41.20;99009.00;1714831;83;21191;-71
2021/06/08 11:06:55;;;;;;;9.63;3.55;;;;;;;27.99;41.16;99000.88;1715004;83;20987;-71
2021/06/08 11:09:34;;;;;;;9.85;3.33;;;;;;;27.97;40.66;98996.30;1688900;83;20982;-71
2021/06/08 11:12:21;;;;;;;9.90;4.20;;;;;;;28.13;41.24;98995.63;1714796;83;20892;-71
2021/06/08 11:14:55;;;;;;;5.83;3.20;;;;;;;28.51;39.63;98987.84;1714778;83;21054;-72
2021/06/08 11:17:31;;;;;;;4.62;3.12;;;;;;;28.91;37.67;98991.02;1714005;83;21730;-71
2021/06/08 11:20:02;;;;;;;6.25;3.15;;;;;;;28.93;37.50;98994.97;1700328;83;21035;-71
2021/06/08 11:22:40;;;;;;;4.45;2.70;;;;;;;28.76;37.42;98996.95;1676962;84;21020;-71
2021/06/08 11:25:28;;;;;;;10.20;3.25;;;;;;;28.66;36.87;99006.55;1662149;86;21542;-71
2021/06/08 11:28:01;;;;;;;4.87;1.90;;;;;;;28.53;40.10;99017.20;1662329;86;20956;-71
2021/06/08 11:30:34;;;;;;;3.02;1.85;;;;;;;28.67;39.75;99034.34;1662389;86;21153;-71
2021/06/08 11:33:04;;;;;;;4.83;2.20;;;;;;;27.92;37.91;99049.20;1662311;86;20964;-71
2021/06/08 11:35:42;;;;;;;7.87;2.30;;;;;;;26.73;40.32;99034.88;1662107;86;20876;-71
2021/06/08 11:38:24;;;;;;;7.40;1.90;;;;;;;25.72;41.11;99033.80;1657874;86;20985;-71
2021/06/08 11:40:56;;;;;;;4.50;2.20;;;;;;;24.62;42.32;99046.99;1644505;87;20905;-71
2021/06/08 11:43:31;;;;;;;7.45;2.40;;;;;;;23.61;44.79;99060.42;1653879;86;21815;-71